createdAt,value
2018-09-12T00:00:05.874Z,72.88
2018-09-12T00:02:33.108Z,72.36
2018-09-12T00:05:00.380Z,72.53
2018-09-12T00:07:27.638Z,72.43
2018-09-12T00:09:54.855Z,72.27
2018-09-12T00:12:22.119Z,72.65
2018-09-12T00:14:49.347Z,72.56
2018-09-12T00:17:16.565Z,72.44
2018-09-12T00:19:43.817Z,72.69
2018-09-12T00:22:11.055Z,72.78
2018-09-12T00:24:38.280Z,72.31
2018-09-12T00:27:05.498Z,72.25
2018-09-12T00:29:32.715Z,72.33
2018-09-12T00:31:59.926Z,72.63
2018-09-12T00:34:27.171Z,72.66
2018-09-12T00:36:54.411Z,72.55
2018-09-12T00:39:21.655Z,73.33
2018-09-12T00:41:48.946Z,73.58
2018-09-12T00:44:16.204Z,73.41
2018-09-12T00:46:43.449Z,73.02
2018-09-12T00:49:10.622Z,72.85
2018-09-12T00:51:37.921Z,73.21
2018-09-12T00:54:05.344Z,73.23
2018-09-12T00:56:32.561Z,72.65
2018-09-12T00:58:59.778Z,73.18
2018-09-12T01:01:27.149Z,73.04
2018-09-12T01:03:54.319Z,73.05
2018-09-12T01:06:21.619Z,73.00
2018-09-12T01:08:48.890Z,73.34
2018-09-12T01:11:16.174Z,73.41
2018-09-12T01:13:43.445Z,73.28
2018-09-12T01:16:10.744Z,73.83
2018-09-12T01:18:37.921Z,74.06
2018-09-12T01:21:05.313Z,74.17
2018-09-12T01:23:32.537Z,74.34
2018-09-12T01:25:59.763Z,74.72
2018-09-12T01:28:27.036Z,73.70
2018-09-12T01:30:54.242Z,74.00
2018-09-12T01:33:21.488Z,75.06
2018-09-12T01:35:48.700Z,74.33
2018-09-12T01:38:15.916Z,74.38
2018-09-12T01:40:43.138Z,74.94
2018-09-12T01:43:10.453Z,74.75
2018-09-12T01:45:37.645Z,75.16
2018-09-12T01:48:04.855Z,74.86
2018-09-12T01:50:32.074Z,74.70
2018-09-12T01:52:59.343Z,74.75
2018-09-12T01:55:26.611Z,75.10
2018-09-12T01:57:53.801Z,75.30
2018-09-12T02:00:25.593Z,74.78
2018-09-12T02:02:52.791Z,75.21
2018-09-12T02:05:20.120Z,75.68
2018-09-12T02:07:47.313Z,75.26
2018-09-12T02:10:14.606Z,75.90
2018-09-12T02:12:41.820Z,75.38
2018-09-12T02:15:09.056Z,76.01
2018-09-12T02:17:36.322Z,76.01
2018-09-12T02:20:04.192Z,75.98
2018-09-12T02:22:31.688Z,75.72
2018-09-12T02:24:58.885Z,76.20
2018-09-12T02:27:26.199Z,75.31
2018-09-12T02:29:53.439Z,75.77
2018-09-12T02:32:20.670Z,75.99
2018-09-12T02:34:47.928Z,76.53
2018-09-12T02:37:15.173Z,76.22
2018-09-12T02:39:42.391Z,76.33
2018-09-12T02:42:09.665Z,76.98
2018-09-12T02:44:36.896Z,76.38
2018-09-12T02:47:08.719Z,76.32
2018-09-12T02:49:35.906Z,76.89
2018-09-12T02:52:03.150Z,77.31
2018-09-12T02:54:30.382Z,76.55
2018-09-12T02:56:57.615Z,76.49
2018-09-12T02:59:24.849Z,76.74
2018-09-12T03:01:52.115Z,76.45
2018-09-12T03:04:36.729Z,75.92
2018-09-12T03:07:04.084Z,76.19
2018-09-12T03:09:31.282Z,77.00
2018-09-12T03:11:58.516Z,77.63
2018-09-12T03:14:25.715Z,77.20
2018-09-12T03:16:52.976Z,77.41
2018-09-12T03:19:20.184Z,77.66
2018-09-12T03:21:47.431Z,77.66
2018-09-12T03:24:14.694Z,78.19
2018-09-12T03:26:41.988Z,77.47
2018-09-12T03:29:09.172Z,78.30
2018-09-12T03:31:36.572Z,77.21
2018-09-12T03:34:03.774Z,77.26
2018-09-12T03:36:30.986Z,77.92
2018-09-12T03:38:58.221Z,78.35
2018-09-12T03:41:25.494Z,78.11
2018-09-12T03:43:52.768Z,78.83
2018-09-12T03:46:20.019Z,78.55
2018-09-12T03:48:47.490Z,79.91
2018-09-12T03:51:14.641Z,79.29
2018-09-12T03:53:41.856Z,79.00
2018-09-12T03:56:09.094Z,78.89
2018-09-12T03:58:36.350Z,78.87
2018-09-12T04:01:03.599Z,79.30
2018-09-12T04:03:30.810Z,78.73
2018-09-12T04:05:58.080Z,79.33
2018-09-12T04:08:25.222Z,78.99
2018-09-12T04:10:52.452Z,78.88
2018-09-12T04:13:19.729Z,78.08
2018-09-12T04:15:46.961Z,78.91
2018-09-12T04:18:14.197Z,78.97
2018-09-12T04:20:41.371Z,78.87
2018-09-12T04:23:08.583Z,79.84
2018-09-12T04:25:35.823Z,80.18
2018-09-12T04:28:03.139Z,79.85
2018-09-12T04:30:30.340Z,79.67
2018-09-12T04:32:57.589Z,78.75
2018-09-12T04:35:24.779Z,79.80
2018-09-12T04:37:52.036Z,79.74
2018-09-12T04:40:19.248Z,79.97
2018-09-12T04:42:46.585Z,79.72
2018-09-12T04:45:13.785Z,78.79
2018-09-12T04:47:41.038Z,79.42
2018-09-12T04:50:08.268Z,79.41
2018-09-12T04:52:35.576Z,80.27
2018-09-12T04:55:02.887Z,80.59
2018-09-12T04:57:30.150Z,81.12
2018-09-12T04:59:57.354Z,80.77
2018-09-12T05:02:24.534Z,81.17
2018-09-12T05:04:51.777Z,80.84
2018-09-12T05:07:19.056Z,80.81
2018-09-12T05:09:46.313Z,79.81
2018-09-12T05:12:13.577Z,79.42
2018-09-12T05:14:40.819Z,80.09
2018-09-12T05:17:08.048Z,80.74
2018-09-12T05:19:35.321Z,79.30
2018-09-12T05:22:02.527Z,79.18
2018-09-12T05:24:29.740Z,80.82
2018-09-12T05:26:56.988Z,80.85
2018-09-12T05:29:24.218Z,80.71
2018-09-12T05:31:51.407Z,81.86
2018-09-12T05:34:18.634Z,81.40
2018-09-12T05:36:45.879Z,80.96
2018-09-12T05:39:13.085Z,81.22
2018-09-12T05:41:40.279Z,80.70
2018-09-12T05:44:07.488Z,80.40
2018-09-12T05:46:35.570Z,80.21
2018-09-12T05:49:03.186Z,80.90
2018-09-12T05:51:30.426Z,80.58
2018-09-12T05:53:57.683Z,79.72
2018-09-12T05:56:24.959Z,79.07
2018-09-12T05:58:52.225Z,79.53
2018-09-12T06:01:19.427Z,78.33
2018-09-12T06:03:46.741Z,77.16
2018-09-12T06:06:14.017Z,76.08
2018-09-12T06:08:41.355Z,75.74
2018-09-12T06:11:08.595Z,74.99
2018-09-12T06:13:35.797Z,75.39
2018-09-12T06:16:03.056Z,75.19
2018-09-12T06:18:30.376Z,74.83
2018-09-12T06:20:57.613Z,75.44
2018-09-12T06:23:24.856Z,75.20
2018-09-12T06:25:52.153Z,74.43
2018-09-12T06:28:19.331Z,74.74
2018-09-12T06:30:46.526Z,74.32
2018-09-12T06:33:13.756Z,74.09
2018-09-12T06:35:41.019Z,73.69
2018-09-12T06:38:08.245Z,72.93
2018-09-12T06:40:35.450Z,71.95
2018-09-12T06:43:02.643Z,71.23
2018-09-12T06:45:29.852Z,71.08
2018-09-12T06:47:57.117Z,69.68
2018-09-12T06:50:24.358Z,66.55
2018-09-12T06:52:51.554Z,66.47
2018-09-12T06:55:18.762Z,64.16
2018-09-12T06:57:45.997Z,62.73
2018-09-12T07:00:13.207Z,61.84
2018-09-12T07:02:40.418Z,60.52
2018-09-12T07:05:07.657Z,58.18
2018-09-12T07:07:34.854Z,56.23
2018-09-12T07:10:02.116Z,55.05
2018-09-12T07:12:29.301Z,53.99
2018-09-12T07:14:56.541Z,52.00
2018-09-12T07:17:23.808Z,51.18
2018-09-12T07:19:51.051Z,50.54
2018-09-12T07:22:18.214Z,48.88
2018-09-12T07:24:45.515Z,49.57
2018-09-12T07:27:12.780Z,49.03
2018-09-12T07:29:40.029Z,48.76
2018-09-12T07:32:07.228Z,47.14
2018-09-12T07:34:34.490Z,47.53
2018-09-12T07:37:01.721Z,47.15
2018-09-12T07:39:28.931Z,45.12
2018-09-12T07:41:56.138Z,44.57
2018-09-12T07:44:23.277Z,44.00
2018-09-12T07:46:50.575Z,42.39
2018-09-12T07:49:17.806Z,43.11
2018-09-12T07:51:44.986Z,41.07
2018-09-12T07:54:12.166Z,40.79
2018-09-12T07:56:39.425Z,40.11
2018-09-12T07:59:06.680Z,39.47
2018-09-12T08:01:33.932Z,37.89
2018-09-12T08:04:01.195Z,37.84
2018-09-12T08:06:28.448Z,38.49
2018-09-12T08:08:55.653Z,38.54
2018-09-12T08:11:22.908Z,37.58
2018-09-12T08:13:50.308Z,37.67
2018-09-12T08:16:17.494Z,39.71
2018-09-12T08:18:44.837Z,37.93
2018-09-12T08:21:12.149Z,39.91
2018-09-12T08:23:39.548Z,39.59
2018-09-12T08:26:06.787Z,38.61
2018-09-12T08:28:34.004Z,40.93
2018-09-12T08:31:01.387Z,41.36
2018-09-12T08:33:28.599Z,41.29
2018-09-12T08:35:57.925Z,42.87
2018-09-12T08:38:25.291Z,43.40
2018-09-12T08:40:52.565Z,44.15
2018-09-12T08:43:19.843Z,43.38
2018-09-12T08:45:47.055Z,43.92
2018-09-12T08:48:14.327Z,44.44
2018-09-12T08:50:41.618Z,44.90
2018-09-12T08:53:08.825Z,44.90
2018-09-12T08:55:36.094Z,44.44
2018-09-12T08:58:03.376Z,44.98
2018-09-12T09:00:34.172Z,43.90
2018-09-12T09:03:01.764Z,42.07
2018-09-12T09:05:29.032Z,42.99
2018-09-12T09:07:56.407Z,42.05
2018-09-12T09:10:23.928Z,41.89
2018-09-12T09:12:51.113Z,42.55
2018-09-12T09:15:18.399Z,41.11
2018-09-12T09:17:45.599Z,40.95
2018-09-12T09:20:12.843Z,39.77
2018-09-12T09:22:40.103Z,40.95
2018-09-12T09:25:07.386Z,39.61
2018-09-12T09:27:34.605Z,39.35
2018-09-12T09:30:01.830Z,39.81
2018-09-12T09:32:29.114Z,38.65
2018-09-12T09:34:56.349Z,39.59
2018-09-12T09:37:23.590Z,38.31
2018-09-12T09:39:50.812Z,38.58
2018-09-12T09:42:18.078Z,38.58
2018-09-12T09:44:45.277Z,38.88
2018-09-12T09:47:12.485Z,39.64
2018-09-12T09:49:39.681Z,37.38
2018-09-12T09:52:06.947Z,34.92
2018-09-12T09:54:34.194Z,35.96
2018-09-12T09:57:01.463Z,35.75
2018-09-12T09:59:28.704Z,36.10
2018-09-12T10:02:01.516Z,35.41
2018-09-12T10:04:34.491Z,35.55
2018-09-12T10:07:07.480Z,34.52
2018-09-12T10:09:34.750Z,35.05
2018-09-12T10:12:02.961Z,35.26
2018-09-12T10:14:30.308Z,34.02
2018-09-12T10:16:57.723Z,32.82
2018-09-12T10:19:24.963Z,32.69
2018-09-12T10:21:52.222Z,32.38
2018-09-12T10:24:19.559Z,32.34
2018-09-12T10:26:46.828Z,32.11
2018-09-12T10:29:14.340Z,32.39
2018-09-12T10:31:41.528Z,32.36
2018-09-12T10:34:08.807Z,32.59
2018-09-12T10:36:36.076Z,32.52
2018-09-12T10:39:05.081Z,31.05
2018-09-12T10:41:32.472Z,31.34
2018-09-12T10:43:59.823Z,32.01
2018-09-12T10:46:27.110Z,31.78
2018-09-12T10:48:54.330Z,31.34
2018-09-12T10:51:21.644Z,31.40
2018-09-12T10:53:48.831Z,31.99
2018-09-12T10:56:16.105Z,32.01
2018-09-12T10:58:43.328Z,30.96
2018-09-12T11:01:10.636Z,30.95
2018-09-12T11:03:37.882Z,31.25
2018-09-12T11:06:05.218Z,29.70
2018-09-12T11:08:32.544Z,30.19
2018-09-12T11:10:59.867Z,29.25
2018-09-12T11:13:27.165Z,28.38
2018-09-12T11:15:54.466Z,28.84
2018-09-12T11:18:21.734Z,28.92
2018-09-12T11:20:48.955Z,29.06
2018-09-12T11:23:16.188Z,28.42
2018-09-12T11:25:43.415Z,28.86
2018-09-12T11:28:10.710Z,28.43
2018-09-12T11:30:37.991Z,28.63
2018-09-12T11:33:05.242Z,29.60
2018-09-12T11:35:32.513Z,29.82
2018-09-12T11:37:59.717Z,29.57
2018-09-12T11:40:26.952Z,29.67
2018-09-12T11:42:54.172Z,29.45
2018-09-12T11:45:21.454Z,30.46
2018-09-12T11:47:48.658Z,30.26
2018-09-12T11:50:15.899Z,30.11
2018-09-12T11:52:43.192Z,30.41
2018-09-12T11:55:10.495Z,30.01
2018-09-12T11:57:37.731Z,30.28
2018-09-12T12:00:05.374Z,31.29
2018-09-12T12:02:32.626Z,31.50
2018-09-12T12:04:59.876Z,31.12
2018-09-12T12:07:27.167Z,29.03
2018-09-12T12:09:54.486Z,29.54
2018-09-12T12:12:21.705Z,29.34
2018-09-12T12:14:49.108Z,29.30
2018-09-12T12:17:16.420Z,29.18
2018-09-12T12:19:43.651Z,30.23
2018-09-12T12:22:10.925Z,29.12
2018-09-12T12:24:38.197Z,29.82
2018-09-12T12:27:06.019Z,30.12
2018-09-12T12:29:33.338Z,29.93
2018-09-12T12:32:00.607Z,29.20
2018-09-12T12:34:27.804Z,28.55
2018-09-12T12:36:55.085Z,28.12
2018-09-12T12:39:22.315Z,28.96
2018-09-12T12:41:49.613Z,28.74
2018-09-12T12:44:16.796Z,28.34
2018-09-12T12:46:44.082Z,28.70
2018-09-12T12:49:11.246Z,29.63
2018-09-12T12:51:38.500Z,30.32
2018-09-12T12:54:05.739Z,30.90
2018-09-12T12:56:33.019Z,30.21
2018-09-12T12:59:00.233Z,31.00
2018-09-12T13:01:27.544Z,31.38
2018-09-12T13:03:54.817Z,31.14
2018-09-12T13:06:22.133Z,31.42
2018-09-12T13:08:49.361Z,29.92
2018-09-12T13:11:16.630Z,29.51
2018-09-12T13:13:43.880Z,30.52
2018-09-12T13:16:11.117Z,29.60
2018-09-12T13:18:38.385Z,29.68
2018-09-12T13:21:05.692Z,29.68
2018-09-12T13:23:32.950Z,29.74
2018-09-12T13:26:00.246Z,30.11
2018-09-12T13:28:27.508Z,29.07
2018-09-12T13:30:54.781Z,28.90
2018-09-12T13:33:22.119Z,28.21
2018-09-12T13:35:49.388Z,27.08
2018-09-12T13:38:16.638Z,27.94
2018-09-12T13:40:43.841Z,27.07
2018-09-12T13:43:11.120Z,27.60
2018-09-12T13:45:38.372Z,27.61
2018-09-12T13:48:05.592Z,28.39
2018-09-12T13:50:32.897Z,28.94
2018-09-12T13:53:00.107Z,29.31
2018-09-12T13:55:27.374Z,28.85
2018-09-12T13:57:54.541Z,27.19
2018-09-12T14:00:21.784Z,27.49
2018-09-12T14:02:49.033Z,26.50
2018-09-12T14:05:16.286Z,26.58
2018-09-12T14:07:43.611Z,26.40
2018-09-12T14:10:10.874Z,27.88
2018-09-12T14:12:38.198Z,26.84
2018-09-12T14:15:05.517Z,27.68
2018-09-12T14:17:32.818Z,27.64
2018-09-12T14:20:00.309Z,27.36
2018-09-12T14:22:27.616Z,26.76
2018-09-12T14:24:54.900Z,26.74
2018-09-12T14:27:22.141Z,26.58
2018-09-12T14:29:49.395Z,27.38
2018-09-12T14:32:16.721Z,26.92
2018-09-12T14:34:43.986Z,26.61
2018-09-12T14:37:11.155Z,26.42
2018-09-12T14:39:38.346Z,26.74
2018-09-12T14:42:05.673Z,26.65
2018-09-12T14:44:32.909Z,27.28
2018-09-12T14:47:00.114Z,27.92
2018-09-12T14:49:27.422Z,27.82
2018-09-12T14:51:54.601Z,27.50
2018-09-12T14:54:21.853Z,27.24
2018-09-12T14:56:49.129Z,27.11
2018-09-12T14:59:16.408Z,26.87
2018-09-12T15:01:43.627Z,27.62
2018-09-12T15:04:10.826Z,26.85
2018-09-12T15:06:38.102Z,27.20
2018-09-12T15:09:07.377Z,26.42
2018-09-12T15:11:34.595Z,25.47
2018-09-12T15:14:01.868Z,25.36
2018-09-12T15:16:29.107Z,25.17
2018-09-12T15:18:56.376Z,26.76
2018-09-12T15:21:23.608Z,27.23
2018-09-12T15:23:50.815Z,27.50
2018-09-12T15:26:18.090Z,27.79
2018-09-12T15:28:45.360Z,26.95
2018-09-12T15:31:12.616Z,27.08
2018-09-12T15:33:39.829Z,26.69
2018-09-12T15:36:07.186Z,27.13
2018-09-12T15:38:34.502Z,26.69
2018-09-12T15:41:01.821Z,26.96
2018-09-12T15:43:29.092Z,27.29
2018-09-12T15:45:56.324Z,27.02
2018-09-12T15:48:23.509Z,26.67
2018-09-12T15:50:50.761Z,27.86
2018-09-12T15:53:17.920Z,28.58
2018-09-12T15:55:45.141Z,29.62
2018-09-12T15:58:12.483Z,29.54
2018-09-12T16:00:39.627Z,30.79
2018-09-12T16:03:06.964Z,31.50
2018-09-12T16:05:34.192Z,32.28
2018-09-12T16:08:01.524Z,31.35
2018-09-12T16:10:28.740Z,31.51
2018-09-12T16:12:56.051Z,31.42
2018-09-12T16:15:23.455Z,32.08
2018-09-12T16:17:50.529Z,31.12
2018-09-12T16:20:17.814Z,31.56
2018-09-12T16:22:45.032Z,32.87
2018-09-12T16:25:12.314Z,33.18
2018-09-12T16:27:39.564Z,32.14
2018-09-12T16:30:07.124Z,33.20
2018-09-12T16:32:34.405Z,32.77
2018-09-12T16:35:01.672Z,32.68
2018-09-12T16:37:28.925Z,32.71
2018-09-12T16:39:56.195Z,32.81
2018-09-12T16:42:23.462Z,32.88
2018-09-12T16:44:50.706Z,33.46
2018-09-12T16:47:17.865Z,33.52
2018-09-12T16:49:45.131Z,35.08
2018-09-12T16:52:12.367Z,33.89
2018-09-12T16:54:39.651Z,34.67
2018-09-12T16:57:06.910Z,34.97
2018-09-12T16:59:34.157Z,35.34
2018-09-12T17:02:01.419Z,35.32
2018-09-12T17:04:28.728Z,35.57
2018-09-12T17:06:56.050Z,36.99
2018-09-12T17:09:23.262Z,36.89
2018-09-12T17:11:50.595Z,36.94
2018-09-12T17:14:17.900Z,37.11
2018-09-12T17:16:45.097Z,37.01
2018-09-12T17:19:12.526Z,37.83
2018-09-12T17:21:39.733Z,37.44
2018-09-12T17:24:07.025Z,38.60
2018-09-12T17:26:35.084Z,39.09
2018-09-12T17:29:02.294Z,38.95
2018-09-12T17:31:29.520Z,39.34
2018-09-12T17:33:56.748Z,39.59
2018-09-12T17:36:25.771Z,39.55
2018-09-12T17:38:53.111Z,39.55
2018-09-12T17:41:20.402Z,40.57
2018-09-12T17:43:47.597Z,41.02
2018-09-12T17:46:14.779Z,41.33
2018-09-12T17:48:41.994Z,41.95
2018-09-12T17:51:09.193Z,41.17
2018-09-12T17:53:36.580Z,41.22
2018-09-12T17:56:03.862Z,42.03
2018-09-12T17:58:31.018Z,42.38
2018-09-12T18:00:58.345Z,41.88
2018-09-12T18:03:25.577Z,42.86
2018-09-12T18:05:52.873Z,43.79
2018-09-12T18:08:20.090Z,43.72
2018-09-12T18:10:47.393Z,43.51
2018-09-12T18:13:14.690Z,44.39
2018-09-12T18:15:42.028Z,43.79
2018-09-12T18:18:09.231Z,44.43
2018-09-12T18:20:36.412Z,44.95
2018-09-12T18:23:03.723Z,45.45
2018-09-12T18:25:30.939Z,45.59
2018-09-12T18:27:58.788Z,46.13
2018-09-12T18:30:26.100Z,46.22
2018-09-12T18:32:53.330Z,47.43
2018-09-12T18:35:20.569Z,46.82
2018-09-12T18:37:47.828Z,47.89
2018-09-12T18:40:15.055Z,48.20
2018-09-12T18:42:42.377Z,48.28
2018-09-12T18:45:09.577Z,48.25
2018-09-12T18:47:36.817Z,47.95
2018-09-12T18:50:04.625Z,47.75
2018-09-12T18:52:31.892Z,48.01
2018-09-12T18:54:59.134Z,49.00
2018-09-12T18:57:26.352Z,48.61
2018-09-12T18:59:53.635Z,49.53
2018-09-12T19:02:20.890Z,49.05
2018-09-12T19:04:48.184Z,49.32
2018-09-12T19:07:15.613Z,48.97
2018-09-12T19:09:42.748Z,49.82
2018-09-12T19:12:10.012Z,50.35
2018-09-12T19:14:37.283Z,51.64
2018-09-12T19:17:04.516Z,52.67
2018-09-12T19:19:31.739Z,51.98
2018-09-12T19:21:59.042Z,52.64
2018-09-12T19:24:26.313Z,53.13
2018-09-12T19:26:53.518Z,53.25
2018-09-12T19:29:20.762Z,53.29
2018-09-12T19:31:47.928Z,52.76
2018-09-12T19:34:15.135Z,52.84
2018-09-12T19:36:42.449Z,52.83
2018-09-12T19:39:10.252Z,53.15
2018-09-12T19:41:37.935Z,52.96
2018-09-12T19:44:05.356Z,53.77
2018-09-12T19:46:32.692Z,53.62
2018-09-12T19:48:59.995Z,53.59
2018-09-12T19:51:27.355Z,55.78
2018-09-12T19:53:54.597Z,57.99
2018-09-12T19:56:21.853Z,58.42
2018-09-12T19:58:49.103Z,57.76
2018-09-12T20:01:16.320Z,57.31
2018-09-12T20:03:43.643Z,57.16
2018-09-12T20:06:10.907Z,57.00
2018-09-12T20:08:38.157Z,56.81
2018-09-12T20:11:05.576Z,57.56
2018-09-12T20:13:32.840Z,57.62
2018-09-12T20:16:00.102Z,57.96
2018-09-12T20:18:27.509Z,58.22
2018-09-12T20:20:54.798Z,61.19
2018-09-12T20:23:22.357Z,62.35
2018-09-12T20:25:49.588Z,64.82
2018-09-12T20:28:16.912Z,67.06
2018-09-12T20:30:44.414Z,69.41
2018-09-12T20:33:11.728Z,70.99
2018-09-12T20:35:39.063Z,70.75
2018-09-12T20:38:06.319Z,70.60
2018-09-12T20:40:33.558Z,71.11
2018-09-12T20:43:00.816Z,71.42
2018-09-12T20:45:28.096Z,71.31
2018-09-12T20:47:55.458Z,70.91
2018-09-12T20:50:22.780Z,71.06
2018-09-12T20:52:50.100Z,70.78
2018-09-12T20:55:17.363Z,70.83
2018-09-12T20:57:44.572Z,70.81
2018-09-12T21:00:11.849Z,71.23
2018-09-12T21:02:39.089Z,70.55
2018-09-12T21:05:06.253Z,68.79
2018-09-12T21:07:33.476Z,67.40
2018-09-12T21:10:00.742Z,67.08
2018-09-12T21:12:28.049Z,66.26
2018-09-12T21:14:55.307Z,65.85
2018-09-12T21:17:22.596Z,66.26
2018-09-12T21:19:49.833Z,67.15
2018-09-12T21:22:17.121Z,67.40
2018-09-12T21:24:44.351Z,68.54
2018-09-12T21:27:11.645Z,70.00
2018-09-12T21:29:38.884Z,70.53
2018-09-12T21:32:06.136Z,70.64
2018-09-12T21:34:33.390Z,70.58
2018-09-12T21:37:00.629Z,69.91
2018-09-12T21:39:27.841Z,69.12
2018-09-12T21:41:55.098Z,68.64
2018-09-12T21:44:22.230Z,67.80
2018-09-12T21:46:49.515Z,67.49
2018-09-12T21:49:16.735Z,67.23
2018-09-12T21:51:43.986Z,66.99
2018-09-12T21:54:11.188Z,66.51
2018-09-12T21:56:38.458Z,67.18
2018-09-12T21:59:05.713Z,67.80
2018-09-12T22:01:32.971Z,68.72
2018-09-12T22:04:00.259Z,68.82
2018-09-12T22:06:27.539Z,68.07
2018-09-12T22:08:54.782Z,67.92
2018-09-12T22:11:22.024Z,68.00
2018-09-12T22:13:49.245Z,68.22
2018-09-12T22:16:16.451Z,69.36
2018-09-12T22:18:43.671Z,70.28
2018-09-12T22:21:10.933Z,70.45
2018-09-12T22:23:38.234Z,70.31
2018-09-12T22:26:05.518Z,69.99
2018-09-12T22:28:32.741Z,70.24
2018-09-12T22:31:00.044Z,71.31
2018-09-12T22:33:27.353Z,71.19
2018-09-12T22:35:54.647Z,71.08
2018-09-12T22:38:21.806Z,70.79
2018-09-12T22:40:49.074Z,70.89
2018-09-12T22:43:16.308Z,70.70
2018-09-12T22:45:43.534Z,71.18
2018-09-12T22:48:10.810Z,71.58
2018-09-12T22:50:38.019Z,71.23
2018-09-12T22:53:05.197Z,70.89
2018-09-12T22:55:32.337Z,70.93
2018-09-12T22:57:59.550Z,70.81
2018-09-12T23:00:26.856Z,70.66
2018-09-12T23:02:54.112Z,70.53
2018-09-12T23:05:21.362Z,70.62
2018-09-12T23:07:48.577Z,70.09
2018-09-12T23:10:15.825Z,69.60
2018-09-12T23:12:43.081Z,70.11
2018-09-12T23:15:10.455Z,69.97
2018-09-12T23:17:37.645Z,70.44
2018-09-12T23:20:05.443Z,70.70
2018-09-12T23:22:32.722Z,71.08
2018-09-12T23:25:00.019Z,70.82
2018-09-12T23:27:27.219Z,70.58
2018-09-12T23:29:54.525Z,70.20
2018-09-12T23:32:21.734Z,70.19
2018-09-12T23:34:49.019Z,70.09
2018-09-12T23:37:16.288Z,71.66
2018-09-12T23:39:43.494Z,71.92
2018-09-12T23:42:10.788Z,72.66
2018-09-12T23:44:38.002Z,73.59
2018-09-12T23:47:05.343Z,73.59
2018-09-12T23:49:32.638Z,73.82
2018-09-12T23:51:59.885Z,73.94
2018-09-12T23:54:27.185Z,73.99
2018-09-12T23:56:54.454Z,74.55
2018-09-12T23:59:21.704Z,75.49
